Time;durP1;ratioP1;P1;durP2;ratioP2;P2;SDS_P1;SDS_P2;PMS_P1;PMS_P2;Temp;Humidity;BMP_temperature;BMP_pressure;BME280_temperature;BME280_humidity;BME280_pressure;Samples;Min_cycle;Max_cycle;Signal;HPM_P1;HPM_P2
2022/12/20 00:00:49;;;;;;;7.22;3.67;;;9.80;99.90;;;;;;5048111;28;20491;-78
2022/12/20 00:03:15;;;;;;;5.40;3.78;;;9.80;99.90;;;;;;5049095;28;20479;-78
2022/12/20 00:05:42;;;;;;;5.85;3.63;;;9.80;99.90;;;;;;5040060;28;20431;-78
2022/12/20 00:08:09;;;;;;;9.18;4.05;;;9.80;99.90;;;;;;5041929;28;21375;-77
2022/12/20 00:10:44;;;;;;;6.25;4.05;;;9.80;99.90;;;;;;5048029;28;20414;-76
2022/12/20 00:13:11;;;;;;;5.18;3.70;;;9.80;99.90;;;;;;5048502;28;20406;-78
2022/12/20 00:15:37;;;;;;;6.90;3.53;;;9.90;99.90;;;;;;5039827;28;20439;-77
2022/12/20 00:18:03;;;;;;;5.17;3.50;;;9.90;99.90;;;;;;5040098;28;20452;-78
2022/12/20 00:20:29;;;;;;;5.40;3.40;;;9.80;99.90;;;;;;5046971;28;20491;-79
2022/12/20 00:22:55;;;;;;;5.25;3.30;;;9.80;99.90;;;;;;5037212;28;20430;-78
2022/12/20 00:25:21;;;;;;;8.23;3.92;;;9.80;99.90;;;;;;5046094;28;20486;-77
2022/12/20 00:27:48;;;;;;;6.05;3.38;;;9.90;99.90;;;;;;5046627;28;20424;-79
2022/12/20 00:30:14;;;;;;;4.93;3.40;;;9.80;99.90;;;;;;5048664;28;20442;-78
2022/12/20 00:32:40;;;;;;;8.57;3.70;;;9.80;99.90;;;;;;5046788;28;20495;-78
2022/12/20 00:35:06;;;;;;;4.80;3.03;;;9.70;99.90;;;;;;5030136;28;20820;-78
2022/12/20 00:37:31;;;;;;;7.85;3.75;;;9.80;99.90;;;;;;5047652;28;20413;-77
2022/12/20 00:39:57;;;;;;;5.60;3.65;;;9.80;99.90;;;;;;5048330;28;20458;-78
2022/12/20 00:42:23;;;;;;;4.20;2.90;;;9.80;99.90;;;;;;5047557;28;20425;-77
2022/12/20 00:44:48;;;;;;;7.13;3.83;;;9.80;99.90;;;;;;5047174;28;20424;-76
2022/12/20 00:47:14;;;;;;;5.50;3.35;;;9.90;99.90;;;;;;5048864;28;20409;-78
2022/12/20 00:49:40;;;;;;;5.95;3.92;;;9.90;99.90;;;;;;5047982;28;20429;-78
2022/12/20 00:52:06;;;;;;;4.88;2.88;;;9.90;99.90;;;;;;5047651;28;20452;-77
2022/12/20 00:54:32;;;;;;;8.18;3.15;;;9.90;99.90;;;;;;5047447;28;20795;-77
2022/12/20 00:56:58;;;;;;;5.68;3.22;;;9.90;99.90;;;;;;5047329;28;20819;-78
2022/12/20 00:59:24;;;;;;;5.37;3.17;;;9.90;99.90;;;;;;5041326;28;20451;-78
2022/12/20 01:01:50;;;;;;;5.10;3.10;;;9.90;99.90;;;;;;5041306;28;20409;-77
2022/12/20 01:04:16;;;;;;;3.85;2.80;;;9.90;99.90;;;;;;5045009;28;20787;-77
2022/12/20 01:06:41;;;;;;;5.50;3.08;;;10.00;99.90;;;;;;5032638;28;20475;-77
2022/12/20 01:09:07;;;;;;;6.78;3.30;;;9.90;99.90;;;;;;5047002;28;20452;-77
2022/12/20 01:11:34;;;;;;;4.50;3.20;;;9.90;99.90;;;;;;5046569;28;20428;-77
2022/12/20 01:14:10;;;;;;;4.77;2.87;;;9.90;99.90;;;;;;5047972;28;20509;-78
2022/12/20 01:16:42;;;;;;;4.30;3.08;;;10.00;99.90;;;;;;5048119;28;20488;-77
2022/12/20 01:19:10;;;;;;;5.15;2.72;;;9.80;99.90;;;;;;5046447;28;21565;-78
2022/12/20 01:21:38;;;;;;;5.30;3.00;;;10.00;99.90;;;;;;5041879;28;20424;-78
2022/12/20 01:24:04;;;;;;;4.63;2.83;;;9.90;99.90;;;;;;5040562;28;20761;-77
2022/12/20 01:26:30;;;;;;;5.07;2.85;;;9.90;99.90;;;;;;5046877;28;20486;-77
2022/12/20 01:28:58;;;;;;;3.92;2.58;;;9.90;99.90;;;;;;5046971;28;20508;-77
2022/12/20 01:31:24;;;;;;;3.20;2.88;;;9.90;99.90;;;;;;5049374;28;20498;-78
2022/12/20 01:33:51;;;;;;;5.45;3.10;;;9.90;99.90;;;;;;5052388;28;20417;-77
2022/12/20 01:36:26;;;;;;;5.65;3.20;;;9.90;99.90;;;;;;5020899;28;21093;-76
2022/12/20 01:39:15;;;;;;;4.75;3.10;;;9.90;99.90;;;;;;5045248;28;20432;-78
2022/12/20 01:41:42;;;;;;;7.85;3.78;;;9.90;99.90;;;;;;5029339;28;20479;-78
2022/12/20 01:44:16;;;;;;;4.35;3.30;;;9.90;99.90;;;;;;5051317;28;20525;-78
2022/12/20 01:46:47;;;;;;;4.55;2.80;;;9.90;99.90;;;;;;5052345;28;20623;-77
2022/12/20 01:49:51;;;;;;;5.38;2.85;;;9.90;99.90;;;;;;5048209;28;20440;-77
2022/12/20 01:52:32;;;;;;;5.75;2.92;;;9.90;99.90;;;;;;4986689;28;20415;-77
2022/12/20 01:55:11;;;;;;;7.50;3.13;;;9.90;99.90;;;;;;5043419;28;20783;-78
2022/12/20 01:58:03;;;;;;;5.32;3.05;;;10.00;99.90;;;;;;5044835;28;20547;-77
2022/12/20 02:00:29;;;;;;;3.63;2.53;;;9.90;99.90;;;;;;5051143;28;20428;-78
2022/12/20 02:02:59;;;;;;;4.28;2.67;;;9.90;99.90;;;;;;5051219;28;20452;-78
2022/12/20 02:05:24;;;;;;;4.78;2.72;;;9.90;99.90;;;;;;5051047;28;20482;-78
2022/12/20 02:07:52;;;;;;;6.93;2.38;;;10.00;99.90;;;;;;5049952;28;20819;-77
2022/12/20 02:10:21;;;;;;;5.90;2.60;;;10.00;99.90;;;;;;5050058;28;20417;-80
2022/12/20 02:12:49;;;;;;;7.47;3.58;;;9.90;99.90;;;;;;5036632;28;20493;-77
2022/12/20 02:15:44;;;;;;;4.70;2.65;;;10.00;99.90;;;;;;5049342;28;20421;-78
2022/12/20 02:18:38;;;;;;;4.93;2.80;;;10.10;99.90;;;;;;5038512;28;20475;-78
2022/12/20 02:21:13;;;;;;;4.88;2.85;;;10.10;99.90;;;;;;5032640;28;20913;-77
2022/12/20 02:24:12;;;;;;;5.47;3.30;;;10.10;99.90;;;;;;5051046;28;20433;-78
2022/12/20 02:26:56;;;;;;;6.28;3.22;;;10.10;99.90;;;;;;5049337;28;20795;-79
2022/12/20 02:30:11;;;;;;;3.78;2.53;;;10.10;99.90;;;;;;5042509;28;20499;-78
2022/12/20 02:32:39;;;;;;;4.95;3.03;;;10.10;99.90;;;;;;5038527;28;20532;-80
2022/12/20 02:35:08;;;;;;;4.50;2.72;;;10.10;99.90;;;;;;5043617;28;20434;-77
2022/12/20 02:37:34;;;;;;;6.70;3.80;;;10.00;99.90;;;;;;5038856;28;20519;-78
2022/12/20 02:40:01;;;;;;;6.13;3.10;;;10.00;99.90;;;;;;5031665;28;20529;-78
2022/12/20 02:42:28;;;;;;;4.85;2.67;;;10.00;99.90;;;;;;5048060;28;20425;-78
2022/12/20 02:45:14;;;;;;;4.80;3.47;;;9.90;99.90;;;;;;5048609;28;20983;-79
2022/12/20 02:47:49;;;;;;;3.60;2.90;;;9.90;99.90;;;;;;5050080;28;20896;-79
2022/12/20 02:50:39;;;;;;;3.90;2.50;;;9.90;99.90;;;;;;5051025;28;20495;-78
2022/12/20 02:53:06;;;;;;;5.10;3.00;;;9.80;99.90;;;;;;5048986;28;20950;-78
2022/12/20 02:55:38;;;;;;;4.90;3.42;;;9.90;99.90;;;;;;5038597;28;20930;-78
2022/12/20 02:58:24;;;;;;;6.88;3.05;;;9.70;99.90;;;;;;5049706;28;20418;-78
2022/12/20 03:00:52;;;;;;;4.13;3.40;;;9.70;99.90;;;;;;5049974;28;20421;-78
2022/12/20 03:03:21;;;;;;;6.22;3.30;;;9.60;99.90;;;;;;5033907;28;20440;-78
2022/12/20 03:05:49;;;;;;;7.55;3.20;;;9.70;99.90;;;;;;5050611;28;20425;-77
2022/12/20 03:08:15;;;;;;;5.07;3.15;;;9.50;99.90;;;;;;5049991;28;20520;-77
2022/12/20 03:10:41;;;;;;;7.65;3.40;;;9.70;99.90;;;;;;5039605;28;20783;-78
2022/12/20 03:13:06;;;;;;;5.70;3.50;;;9.70;99.90;;;;;;5048791;28;20523;-78
2022/12/20 03:15:32;;;;;;;5.57;3.27;;;9.60;99.90;;;;;;5047560;28;20521;-79
2022/12/20 03:17:58;;;;;;;4.63;3.47;;;9.60;99.90;;;;;;5048936;28;20426;-78
2022/12/20 03:20:24;;;;;;;6.07;3.10;;;9.60;99.90;;;;;;5049081;28;20822;-79
2022/12/20 03:22:49;;;;;;;5.93;2.88;;;9.60;99.90;;;;;;5045982;28;20429;-79
2022/12/20 03:25:15;;;;;;;5.13;3.40;;;9.70;99.90;;;;;;5044950;28;20783;-78
2022/12/20 03:27:41;;;;;;;5.53;3.60;;;9.70;99.90;;;;;;5042178;28;20936;-79
2022/12/20 03:30:07;;;;;;;5.20;3.25;;;9.60;99.90;;;;;;5044477;28;20445;-78
2022/12/20 03:32:33;;;;;;;6.00;2.90;;;9.60;99.90;;;;;;5043429;28;20456;-79
2022/12/20 03:34:59;;;;;;;7.35;4.00;;;9.70;99.90;;;;;;5035286;28;20495;-79
2022/12/20 03:37:25;;;;;;;7.82;4.10;;;9.60;99.90;;;;;;5029849;28;20784;-77
2022/12/20 03:39:51;;;;;;;5.38;2.92;;;9.60;99.90;;;;;;5049239;28;20486;-79
2022/12/20 03:42:16;;;;;;;7.03;3.38;;;9.60;99.90;;;;;;5040467;28;20910;-78
2022/12/20 03:44:42;;;;;;;4.90;3.42;;;9.60;99.90;;;;;;5038235;28;20425;-78
2022/12/20 03:47:08;;;;;;;6.05;3.40;;;9.60;99.90;;;;;;5045740;28;20630;-78
2022/12/20 03:49:34;;;;;;;5.65;3.90;;;9.70;99.90;;;;;;5046656;28;20839;-79
2022/12/20 03:52:00;;;;;;;4.20;3.40;;;9.70;99.90;;;;;;5044908;28;20425;-78
2022/12/20 03:54:26;;;;;;;4.53;3.58;;;9.70;99.90;;;;;;5049201;28;20428;-77
2022/12/20 03:56:52;;;;;;;6.10;3.25;;;9.70;99.90;;;;;;5048833;28;20409;-79
2022/12/20 03:59:17;;;;;;;5.87;3.47;;;9.70;99.90;;;;;;5049580;28;20413;-78
2022/12/20 04:01:43;;;;;;;5.30;3.50;;;9.70;99.90;;;;;;5038419;28;20429;-78
2022/12/20 04:04:11;;;;;;;6.38;3.25;;;9.60;99.90;;;;;;5041981;28;20505;-79
2022/12/20 04:06:37;;;;;;;5.13;3.42;;;9.60;99.90;;;;;;5042444;28;20509;-79
2022/12/20 04:09:03;;;;;;;5.50;3.23;;;9.70;99.90;;;;;;5044755;28;20970;-78
2022/12/20 04:11:28;;;;;;;4.90;3.53;;;9.60;99.90;;;;;;5048461;28;20478;-78
2022/12/20 04:13:54;;;;;;;7.63;4.13;;;9.70;99.90;;;;;;5049436;28;20499;-78
2022/12/20 04:16:25;;;;;;;5.27;3.60;;;9.60;99.90;;;;;;5049440;28;20484;-78
2022/12/20 04:18:51;;;;;;;6.07;3.50;;;9.60;99.90;;;;;;5048506;28;20421;-79
2022/12/20 04:21:22;;;;;;;5.35;3.58;;;9.70;99.90;;;;;;5043091;28;20501;-79
2022/12/20 04:23:48;;;;;;;7.03;4.33;;;9.60;99.90;;;;;;5048424;28;20523;-77
2022/12/20 04:26:13;;;;;;;5.17;3.37;;;9.60;99.90;;;;;;5047862;28;20431;-78
2022/12/20 04:28:39;;;;;;;5.53;4.20;;;9.70;99.90;;;;;;5048495;28;20463;-78
2022/12/20 04:31:05;;;;;;;6.40;4.07;;;9.70;99.90;;;;;;5047136;28;20520;-78
2022/12/20 04:33:31;;;;;;;6.17;3.80;;;9.80;99.90;;;;;;5048037;28;20888;-77
2022/12/20 04:35:57;;;;;;;5.63;3.78;;;9.80;99.90;;;;;;5048333;28;20482;-77
2022/12/20 04:38:23;;;;;;;7.33;3.20;;;9.80;99.90;;;;;;5048464;28;20765;-77
2022/12/20 04:40:53;;;;;;;6.47;3.63;;;9.80;99.90;;;;;;5047509;28;20409;-78
2022/12/20 04:43:19;;;;;;;6.93;3.73;;;9.80;99.90;;;;;;5033272;28;20529;-78
2022/12/20 04:45:50;;;;;;;10.00;4.50;;;9.90;99.90;;;;;;5032239;28;20944;-78
2022/12/20 04:48:16;;;;;;;5.25;3.42;;;9.90;99.90;;;;;;5043054;28;20437;-77
2022/12/20 04:50:42;;;;;;;6.50;3.65;;;9.80;99.90;;;;;;5031015;28;20426;-77
2022/12/20 04:55:57;;;;;;;5.43;3.25;;;9.90;99.90;;;;;;5037602;28;20563;-76
2022/12/20 04:58:22;;;;;;;5.40;3.22;;;9.90;99.90;;;;;;5046183;28;20499;-76
2022/12/20 05:00:48;;;;;;;5.00;3.63;;;9.90;99.90;;;;;;5040374;28;20433;-79
2022/12/20 05:03:13;;;;;;;4.68;3.00;;;9.90;99.90;;;;;;5044276;28;20430;-79
2022/12/20 05:05:39;;;;;;;5.85;3.80;;;10.00;99.90;;;;;;5045287;28;20559;-79
2022/12/20 05:08:05;;;;;;;6.60;4.00;;;10.00;99.90;;;;;;5046477;28;20544;-78
2022/12/20 05:10:30;;;;;;;5.80;3.20;;;10.00;99.90;;;;;;5043619;28;20512;-78
2022/12/20 05:12:56;;;;;;;7.70;3.73;;;10.00;99.90;;;;;;5046976;28;20903;-76
2022/12/20 05:15:21;;;;;;;4.57;3.20;;;10.10;99.90;;;;;;5036498;28;20504;-78
2022/12/20 05:17:47;;;;;;;6.17;3.20;;;10.10;99.90;;;;;;5047178;28;20412;-79
2022/12/20 05:20:13;;;;;;;8.32;3.63;;;10.00;99.90;;;;;;5048002;28;20496;-78
2022/12/20 05:28:07;;;;;;;8.00;3.78;;;10.10;99.90;;;;;;5039851;28;20741;-77
2022/12/20 05:30:33;;;;;;;5.60;3.05;;;10.10;99.90;;;;;;5047759;28;20416;-78
2022/12/20 05:32:58;;;;;;;8.93;3.00;;;10.00;99.90;;;;;;5047422;28;20420;-79
2022/12/20 05:35:24;;;;;;;5.68;3.10;;;10.00;99.90;;;;;;5047345;28;20512;-77
2022/12/20 05:37:50;;;;;;;5.68;3.05;;;10.00;99.90;;;;;;5047771;28;20406;-80
2022/12/20 05:40:16;;;;;;;5.77;3.03;;;10.10;99.90;;;;;;5046997;28;20405;-78
2022/12/20 05:42:42;;;;;;;3.58;2.97;;;10.10;99.90;;;;;;5047098;28;20475;-78
2022/12/20 05:45:08;;;;;;;4.60;3.10;;;10.00;99.90;;;;;;5048099;28;20424;-77
2022/12/20 05:47:34;;;;;;;7.22;3.72;;;10.10;99.90;;;;;;5047477;28;20425;-79
2022/12/20 05:50:00;;;;;;;5.90;2.90;;;10.10;99.90;;;;;;5047142;28;20448;-78
2022/12/20 05:52:26;;;;;;;4.22;3.30;;;10.10;99.90;;;;;;5047426;28;20474;-78
2022/12/20 05:54:51;;;;;;;4.47;2.90;;;10.20;99.90;;;;;;5046758;28;20486;-78
2022/12/20 05:57:17;;;;;;;4.90;3.10;;;10.20;99.90;;;;;;5048926;28;20811;-78
2022/12/20 05:59:43;;;;;;;4.97;2.60;;;10.10;99.90;;;;;;5048722;28;20417;-78
2022/12/20 06:02:09;;;;;;;4.72;2.88;;;10.20;99.90;;;;;;5046860;28;20422;-77
2022/12/20 06:04:37;;;;;;;4.53;2.90;;;10.20;99.90;;;;;;5046763;28;20498;-77
2022/12/20 06:07:04;;;;;;;5.25;3.40;;;10.20;99.90;;;;;;5034929;28;20496;-78
2022/12/20 06:09:33;;;;;;;5.18;3.08;;;10.20;99.90;;;;;;5041897;28;20429;-77
2022/12/20 06:11:58;;;;;;;3.00;2.70;;;10.20;99.90;;;;;;5047319;28;20425;-77
2022/12/20 06:14:24;;;;;;;5.47;2.83;;;10.20;99.90;;;;;;5061625;28;21002;-77
2022/12/20 06:16:50;;;;;;;5.33;2.80;;;10.30;99.90;;;;;;5045122;28;20875;-78
2022/12/20 06:19:16;;;;;;;7.60;3.73;;;10.30;99.90;;;;;;5048644;28;20871;-78
2022/12/20 06:21:41;;;;;;;5.53;2.92;;;10.30;99.90;;;;;;5050471;28;20437;-77
2022/12/20 06:24:07;;;;;;;3.17;2.80;;;10.30;99.90;;;;;;5050562;28;21239;-77
2022/12/20 06:26:36;;;;;;;4.93;2.70;;;10.30;99.90;;;;;;5049711;28;20425;-77
2022/12/20 06:29:12;;;;;;;4.72;3.05;;;10.40;99.90;;;;;;5045804;28;20405;-77
2022/12/20 06:31:39;;;;;;;4.03;2.75;;;10.30;99.90;;;;;;5049805;28;20428;-76
2022/12/20 06:34:05;;;;;;;6.90;3.08;;;10.40;99.90;;;;;;5050309;28;20425;-76
2022/12/20 06:36:30;;;;;;;5.97;2.92;;;10.30;99.90;;;;;;5050201;28;20444;-76
2022/12/20 06:38:56;;;;;;;4.45;2.92;;;10.40;99.90;;;;;;5051172;28;20452;-76
2022/12/20 06:41:22;;;;;;;3.73;2.77;;;10.40;99.90;;;;;;5049676;28;20492;-76
2022/12/20 06:43:48;;;;;;;5.07;2.83;;;10.50;99.90;;;;;;5050756;28;20494;-77
2022/12/20 06:46:13;;;;;;;5.93;3.70;;;10.40;99.90;;;;;;5033030;28;20432;-76
2022/12/20 06:48:39;;;;;;;5.70;3.60;;;10.30;99.90;;;;;;5041905;28;20425;-77
2022/12/20 06:51:05;;;;;;;4.60;3.30;;;10.30;99.90;;;;;;5050705;28;20394;-77
2022/12/20 06:53:30;;;;;;;5.27;3.50;;;10.20;99.90;;;;;;5050740;28;20402;-76
2022/12/20 06:55:56;;;;;;;5.70;3.83;;;10.10;99.90;;;;;;5049908;28;20441;-77
2022/12/20 06:58:22;;;;;;;6.22;3.60;;;10.10;99.90;;;;;;5050374;28;20417;-78
2022/12/20 07:00:48;;;;;;;5.78;3.53;;;10.10;99.90;;;;;;5049103;28;20447;-78
2022/12/20 07:03:14;;;;;;;5.43;3.58;;;10.20;99.90;;;;;;5050227;28;20445;-77
2022/12/20 07:05:40;;;;;;;4.83;3.70;;;10.30;99.90;;;;;;5049722;28;20405;-77
2022/12/20 07:08:07;;;;;;;6.85;4.88;;;10.20;99.90;;;;;;5051011;28;20749;-77
2022/12/20 07:10:34;;;;;;;6.68;3.70;;;10.10;99.90;;;;;;5048601;28;20429;-78
2022/12/20 07:12:59;;;;;;;6.68;4.60;;;10.10;99.90;;;;;;5049673;28;20440;-78
2022/12/20 07:15:25;;;;;;;5.43;4.15;;;10.20;99.90;;;;;;5050038;28;20705;-79
2022/12/20 07:17:51;;;;;;;5.53;4.03;;;10.10;99.90;;;;;;5051043;28;20846;-79
2022/12/20 07:20:18;;;;;;;5.70;4.23;;;10.20;99.90;;;;;;5050508;28;20485;-81
2022/12/20 07:22:46;;;;;;;4.13;3.72;;;10.10;99.90;;;;;;5050239;28;20508;-78
2022/12/20 07:25:11;;;;;;;6.40;3.75;;;10.20;99.90;;;;;;5032327;28;20408;-77
2022/12/20 07:27:37;;;;;;;9.20;4.27;;;10.10;99.90;;;;;;5043147;28;20429;-76
2022/12/20 07:30:04;;;;;;;5.57;4.10;;;10.20;99.90;;;;;;5047724;28;20450;-76
2022/12/20 07:32:30;;;;;;;5.95;4.10;;;10.20;99.90;;;;;;5044560;28;20811;-75
2022/12/20 07:34:55;;;;;;;5.50;4.13;;;10.20;99.90;;;;;;5047849;28;20493;-77
2022/12/20 07:37:21;;;;;;;4.03;3.47;;;10.30;99.90;;;;;;5042052;28;20452;-78
2022/12/20 07:39:46;;;;;;;5.65;3.78;;;10.30;99.90;;;;;;5041345;28;20931;-77
2022/12/20 07:42:12;;;;;;;5.30;4.00;;;10.30;99.90;;;;;;5029482;28;20774;-78
2022/12/20 07:44:38;;;;;;;4.78;4.18;;;10.20;99.90;;;;;;5048366;28;20425;-77
2022/12/20 07:47:04;;;;;;;5.70;4.00;;;10.40;99.90;;;;;;5036679;28;20415;-76
2022/12/20 07:49:29;;;;;;;5.60;3.80;;;10.30;99.90;;;;;;5020789;28;20429;-77
2022/12/20 07:51:58;;;;;;;6.00;3.80;;;10.30;99.90;;;;;;5046272;28;20414;-78
2022/12/20 07:54:34;;;;;;;6.63;4.38;;;10.40;99.90;;;;;;5047886;28;20430;-77
2022/12/20 07:57:07;;;;;;;6.38;4.38;;;10.30;99.90;;;;;;5047409;28;20426;-78
2022/12/20 07:59:40;;;;;;;5.13;3.40;;;10.40;99.90;;;;;;5046374;28;20435;-76
2022/12/20 08:02:10;;;;;;;3.90;3.30;;;10.40;99.90;;;;;;5044506;28;20428;-77
2022/12/20 08:04:37;;;;;;;4.97;3.93;;;10.30;99.90;;;;;;5046679;28;20433;-76
2022/12/20 08:07:02;;;;;;;5.32;3.50;;;10.30;99.90;;;;;;5047473;28;20432;-78
2022/12/20 08:09:37;;;;;;;4.57;3.65;;;10.40;99.90;;;;;;5046542;28;20765;-78
2022/12/20 08:12:03;;;;;;;5.38;3.90;;;10.40;99.90;;;;;;5048208;28;20424;-77
2022/12/20 08:14:29;;;;;;;6.15;4.07;;;10.40;99.90;;;;;;5014036;28;20436;-78
2022/12/20 08:16:55;;;;;;;5.40;3.70;;;10.40;99.90;;;;;;5048201;28;20429;-78
2022/12/20 08:19:20;;;;;;;6.23;3.77;;;10.40;99.90;;;;;;5030007;28;20429;-77
2022/12/20 08:21:46;;;;;;;5.90;3.67;;;10.40;99.90;;;;;;5047703;28;20423;-77
2022/12/20 08:24:12;;;;;;;5.13;3.47;;;10.50;99.90;;;;;;5048957;28;20431;-78
2022/12/20 08:26:39;;;;;;;5.10;3.83;;;10.40;99.90;;;;;;5038949;28;20531;-77
2022/12/20 08:29:05;;;;;;;4.50;3.43;;;10.40;99.90;;;;;;5031733;28;20545;-78
2022/12/20 08:31:30;;;;;;;6.27;3.50;;;10.40;99.90;;;;;;5051064;28;20413;-77
2022/12/20 08:33:56;;;;;;;5.67;3.33;;;10.50;99.90;;;;;;5046671;28;20497;-78
2022/12/20 08:36:22;;;;;;;5.33;3.13;;;10.50;99.90;;;;;;5034723;28;20411;-76
2022/12/20 08:38:48;;;;;;;4.03;3.53;;;10.50;99.90;;;;;;5026861;28;20784;-77
2022/12/20 08:41:14;;;;;;;4.77;3.50;;;10.40;99.90;;;;;;5027389;28;20395;-77
2022/12/20 08:43:41;;;;;;;4.85;3.60;;;10.50;99.90;;;;;;5013377;28;20442;-76
2022/12/20 08:46:08;;;;;;;4.05;3.17;;;10.50;99.90;;;;;;5026377;28;20425;-78
2022/12/20 08:48:35;;;;;;;4.03;3.20;;;10.50;99.90;;;;;;5029510;28;20425;-77
2022/12/20 08:51:04;;;;;;;5.90;3.28;;;10.50;99.90;;;;;;5030278;28;20479;-77
2022/12/20 08:53:31;;;;;;;3.28;2.92;;;10.60;99.90;;;;;;5045421;28;20888;-78
2022/12/20 08:56:05;;;;;;;4.18;3.10;;;10.50;99.90;;;;;;5039779;28;20436;-78
2022/12/20 08:58:32;;;;;;;5.05;2.95;;;10.60;99.90;;;;;;5019805;28;20822;-80
2022/12/20 09:00:59;;;;;;;3.75;2.60;;;10.60;99.90;;;;;;5029265;28;20416;-81
2022/12/20 09:03:26;;;;;;;5.57;2.90;;;10.60;99.90;;;;;;5047038;28;20440;-80
2022/12/20 09:05:52;;;;;;;4.60;2.78;;;10.60;99.90;;;;;;5045580;28;20425;-79
2022/12/20 09:08:17;;;;;;;5.43;3.00;;;10.60;99.90;;;;;;5038981;28;20819;-77
2022/12/20 09:10:43;;;;;;;5.20;3.10;;;10.50;99.90;;;;;;5045445;28;20425;-79
2022/12/20 09:13:10;;;;;;;4.68;2.90;;;10.60;99.90;;;;;;5047137;28;20501;-83
2022/12/20 09:15:36;;;;;;;6.13;2.95;;;10.60;99.90;;;;;;5048105;28;20512;-82
2022/12/20 09:18:03;;;;;;;5.35;2.78;;;10.60;99.90;;;;;;5046830;28;20417;-82
2022/12/20 09:20:29;;;;;;;3.90;2.70;;;10.70;99.90;;;;;;5046562;28;20430;-81
2022/12/20 09:22:56;;;;;;;4.30;2.67;;;10.70;99.90;;;;;;5019172;28;20934;-83
2022/12/20 09:25:22;;;;;;;6.20;3.88;;;10.70;99.90;;;;;;5048870;28;20462;-82
2022/12/20 09:27:49;;;;;;;5.78;3.50;;;10.70;99.90;;;;;;5042506;28;20421;-80
2022/12/20 09:30:14;;;;;;;11.47;4.27;;;10.70;99.90;;;;;;5045234;28;20456;-80
2022/12/20 09:32:40;;;;;;;5.50;2.90;;;10.80;99.90;;;;;;5037767;28;20919;-82
2022/12/20 09:35:06;;;;;;;5.00;2.77;;;10.70;99.90;;;;;;5037123;28;20914;-82
2022/12/20 09:37:32;;;;;;;5.78;3.25;;;10.80;99.90;;;;;;5031247;28;20423;-77
2022/12/20 09:39:58;;;;;;;5.60;2.60;;;10.80;99.90;;;;;;5044789;28;20934;-82
2022/12/20 09:42:26;;;;;;;5.40;2.60;;;10.80;99.90;;;;;;5029299;28;20429;-83
2022/12/20 09:44:59;;;;;;;6.28;3.20;;;10.90;99.90;;;;;;5032525;28;21142;-81
2022/12/20 09:47:26;;;;;;;5.82;2.85;;;10.90;99.90;;;;;;5030571;28;20460;-82
2022/12/20 09:49:56;;;;;;;7.90;3.30;;;10.90;99.90;;;;;;5029522;28;20417;-84
2022/12/20 09:52:32;;;;;;;4.95;2.45;;;10.90;99.90;;;;;;5047638;28;20814;-83
2022/12/20 09:55:17;;;;;;;5.88;2.78;;;10.80;99.90;;;;;;5046041;28;20429;-83
2022/12/20 09:58:16;;;;;;;9.43;4.38;;;10.90;99.90;;;;;;5041009;28;20419;-84
2022/12/20 10:00:46;;;;;;;3.45;2.10;;;10.80;99.90;;;;;;5032637;28;20468;-82
2022/12/20 10:03:35;;;;;;;3.53;2.10;;;10.70;99.90;;;;;;5050077;28;20421;-80
2022/12/20 10:06:33;;;;;;;4.78;2.88;;;10.80;99.90;;;;;;5059622;28;20452;-82
2022/12/20 10:09:04;;;;;;;4.93;2.50;;;10.80;99.90;;;;;;5051161;28;20445;-81
2022/12/20 10:12:18;;;;;;;3.75;2.40;;;10.90;99.90;;;;;;5050983;28;20425;-82
2022/12/20 10:15:02;;;;;;;3.83;2.42;;;10.80;99.90;;;;;;5009966;28;20462;-82
2022/12/20 10:17:54;;;;;;;5.37;2.60;;;10.80;99.90;;;;;;4990255;28;20754;-83
2022/12/20 10:20:26;;;;;;;4.85;2.45;;;10.90;99.90;;;;;;5030334;28;20931;-82
2022/12/20 10:23:06;;;;;;;5.25;2.40;;;10.90;99.90;;;;;;5044905;28;20474;-81
2022/12/20 10:25:33;;;;;;;4.95;2.40;;;10.90;99.90;;;;;;5031914;28;20417;-83
2022/12/20 10:28:09;;;;;;;3.07;2.20;;;10.80;99.90;;;;;;5051082;28;20942;-82
2022/12/20 10:30:35;;;;;;;4.80;2.60;;;10.90;99.90;;;;;;5049823;28;20417;-82
2022/12/20 10:33:01;;;;;;;4.45;2.30;;;10.80;99.90;;;;;;5051042;28;20413;-81
2022/12/20 10:35:39;;;;;;;4.47;2.30;;;10.90;99.90;;;;;;5050594;28;20982;-83
2022/12/20 10:38:11;;;;;;;5.55;2.45;;;10.90;99.90;;;;;;5050053;28;20410;-82
2022/12/20 10:40:43;;;;;;;4.75;2.40;;;10.90;99.90;;;;;;5049461;28;20930;-81
2022/12/20 10:43:22;;;;;;;4.78;2.45;;;10.90;99.90;;;;;;5050723;28;20421;-81
2022/12/20 10:46:04;;;;;;;4.22;2.30;;;10.90;99.90;;;;;;5047170;28;20472;-84
2022/12/20 10:48:36;;;;;;;3.70;2.78;;;10.80;99.90;;;;;;5050174;28;20448;-86
2022/12/20 10:51:13;;;;;;;5.43;2.67;;;10.90;99.90;;;;;;5050981;28;20467;-85
2022/12/20 10:53:55;;;;;;;6.32;2.63;;;10.80;99.90;;;;;;5049901;28;20406;-82
2022/12/20 10:56:28;;;;;;;4.97;2.80;;;10.80;99.90;;;;;;5039429;28;20499;-84
2022/12/20 10:59:20;;;;;;;4.83;2.67;;;10.90;99.90;;;;;;5029133;28;20491;-84
2022/12/20 11:01:47;;;;;;;4.25;2.30;;;10.90;99.90;;;;;;5032104;28;20443;-87
2022/12/20 11:04:39;;;;;;;6.05;2.83;;;10.70;99.90;;;;;;5045810;28;20835;-83
2022/12/20 11:07:27;;;;;;;6.28;2.83;;;10.80;99.90;;;;;;5028455;28;20939;-84
2022/12/20 11:10:21;;;;;;;4.63;2.35;;;10.80;99.90;;;;;;5034090;28;20413;-83
2022/12/20 11:13:02;;;;;;;4.63;2.42;;;10.80;99.90;;;;;;5050875;28;20764;-84
2022/12/20 11:15:30;;;;;;;4.70;2.67;;;10.80;99.90;;;;;;5047011;28;20497;-84
2022/12/20 11:18:00;;;;;;;4.75;2.50;;;10.80;99.90;;;;;;5034357;28;20410;-85
2022/12/20 11:20:50;;;;;;;4.28;2.30;;;10.80;99.90;;;;;;5047210;28;20847;-82
2022/12/20 11:23:54;;;;;;;5.07;2.53;;;10.80;99.90;;;;;;5028375;28;20427;-86
2022/12/20 11:26:45;;;;;;;3.92;2.30;;;10.70;99.90;;;;;;5017914;28;20439;-84
2022/12/20 11:29:10;;;;;;;4.20;2.20;;;10.70;99.90;;;;;;5068852;28;20909;-84
2022/12/20 11:32:15;;;;;;;3.87;2.20;;;10.70;99.90;;;;;;5058113;28;20425;-85
2022/12/20 11:34:55;;;;;;;5.22;2.40;;;10.70;99.90;;;;;;5036678;28;21116;-83
2022/12/20 11:37:24;;;;;;;8.38;2.50;;;10.70;99.90;;;;;;5047038;28;20776;-75
2022/12/20 11:40:10;;;;;;;3.55;2.35;;;10.60;99.90;;;;;;5032441;28;20485;-86
2022/12/20 11:43:13;;;;;;;5.43;3.30;;;10.60;99.90;;;;;;5032519;28;20493;-84
2022/12/20 11:45:42;;;;;;;8.00;3.20;;;10.60;99.90;;;;;;5032759;28;20417;-85
2022/12/20 11:48:45;;;;;;;4.57;2.53;;;10.60;99.90;;;;;;5020353;28;20517;-85
2022/12/20 11:51:37;;;;;;;5.80;2.78;;;10.70;99.90;;;;;;5034394;28;20469;-87
2022/12/20 11:54:39;;;;;;;4.87;2.40;;;10.60;99.90;;;;;;5038764;28;20485;-84
2022/12/20 11:57:24;;;;;;;5.63;3.17;;;10.70;99.90;;;;;;5015815;28;20411;-86
2022/12/20 11:59:56;;;;;;;6.90;3.50;;;10.60;99.90;;;;;;5045059;28;20895;-86
2022/12/20 12:02:42;;;;;;;5.00;2.72;;;10.70;99.90;;;;;;5048876;28;20442;-81
2022/12/20 12:05:25;;;;;;;5.72;3.22;;;10.60;99.90;;;;;;5029968;28;20537;-82
2022/12/20 12:07:56;;;;;;;6.07;3.08;;;10.60;99.90;;;;;;5049355;28;20428;-88
2022/12/20 12:10:25;;;;;;;5.68;3.53;;;10.60;99.90;;;;;;5047522;28;20464;-87
2022/12/20 12:13:22;;;;;;;4.75;3.35;;;10.60;99.90;;;;;;5047911;28;20416;-81
2022/12/20 12:16:19;;;;;;;6.75;3.95;;;10.60;99.90;;;;;;5015794;28;20431;-79
2022/12/20 12:18:45;;;;;;;5.45;3.60;;;10.40;99.90;;;;;;5047555;28;20788;-85
2022/12/20 12:21:34;;;;;;;6.97;4.20;;;10.50;99.90;;;;;;5047403;28;20414;-81
2022/12/20 12:24:14;;;;;;;4.57;3.80;;;10.50;99.90;;;;;;5029903;28;20435;-82
2022/12/20 12:26:40;;;;;;;9.10;4.33;;;10.50;99.90;;;;;;5039282;28;20812;-83
2022/12/20 12:29:12;;;;;;;6.93;4.07;;;10.50;99.90;;;;;;5048822;28;20399;-84
2022/12/20 12:31:53;;;;;;;5.38;4.45;;;10.40;99.90;;;;;;5044729;28;20437;-83
2022/12/20 12:34:35;;;;;;;4.93;4.38;;;10.50;99.90;;;;;;5053960;28;20421;-84
2022/12/20 12:37:33;;;;;;;5.53;4.45;;;10.40;99.90;;;;;;5050380;28;20417;-87
2022/12/20 12:40:25;;;;;;;6.32;4.60;;;10.40;99.90;;;;;;5047111;28;20421;-84
2022/12/20 12:42:50;;;;;;;5.90;4.30;;;10.40;99.90;;;;;;5049142;28;20401;-86
2022/12/20 12:45:28;;;;;;;7.50;4.63;;;10.30;99.90;;;;;;5031892;28;20421;-84
2022/12/20 12:48:05;;;;;;;5.40;4.43;;;10.50;99.90;;;;;;5047609;28;20429;-86
2022/12/20 12:50:36;;;;;;;7.75;4.55;;;10.40;99.90;;;;;;5036693;28;20449;-84
2022/12/20 12:53:40;;;;;;;6.43;4.70;;;10.50;99.90;;;;;;5047286;28;20422;-87
2022/12/20 12:56:25;;;;;;;5.22;4.50;;;10.40;99.90;;;;;;5049864;28;20409;-86
2022/12/20 12:59:39;;;;;;;5.00;4.38;;;10.40;99.90;;;;;;5047669;28;20800;-85
2022/12/20 13:02:13;;;;;;;5.97;4.50;;;10.40;99.90;;;;;;5014979;28;20478;-84
2022/12/20 13:05:19;;;;;;;7.68;4.88;;;10.40;99.90;;;;;;5062735;28;20491;-83
2022/12/20 13:07:45;;;;;;;9.90;5.28;;;10.50;99.90;;;;;;5039190;28;20442;-85
2022/12/20 13:10:13;;;;;;;6.38;4.65;;;10.50;99.90;;;;;;5043179;28;20413;-84
2022/12/20 13:12:39;;;;;;;7.65;5.00;;;10.50;99.90;;;;;;5046422;28;20750;-85
2022/12/20 13:15:20;;;;;;;7.78;4.70;;;10.60;99.90;;;;;;5048431;28;20498;-79
2022/12/20 13:18:00;;;;;;;8.30;4.88;;;10.50;99.90;;;;;;5047432;28;20506;-85
2022/12/20 13:20:33;;;;;;;8.05;5.47;;;10.60;99.90;;;;;;5034853;28;20496;-85